createdAt,value
2019-06-10T00:01:45.687Z,6.40
2019-06-10T00:04:13.259Z,6.90
2019-06-10T00:06:41.725Z,7.13
2019-06-10T00:09:11.723Z,7.10
2019-06-10T00:11:41.126Z,6.83
2019-06-10T00:14:10.741Z,6.73
2019-06-10T00:16:38.490Z,6.90
2019-06-10T00:19:08.061Z,6.90
2019-06-10T00:21:35.590Z,7.30
2019-06-10T00:24:05.229Z,7.47
2019-06-10T00:26:32.664Z,6.93
2019-06-10T00:29:02.712Z,6.60
2019-06-10T00:31:31.295Z,7.10
2019-06-10T00:34:01.332Z,7.00
2019-06-10T00:36:30.726Z,7.37
2019-06-10T00:38:59.349Z,7.73
2019-06-10T00:41:27.356Z,8.17
2019-06-10T00:43:54.987Z,7.40
2019-06-10T00:46:22.530Z,7.03
2019-06-10T00:48:51.238Z,6.87
2019-06-10T00:51:20.792Z,7.23
2019-06-10T00:53:48.306Z,6.87
2019-06-10T00:56:15.960Z,7.40
2019-06-10T00:58:43.598Z,6.97
2019-06-10T01:01:14.326Z,7.10
2019-06-10T01:03:41.575Z,7.20
2019-06-10T01:06:12.030Z,7.63
2019-06-10T01:08:40.574Z,8.23
2019-06-10T01:11:11.642Z,7.70
2019-06-10T01:13:37.816Z,7.07
2019-06-10T01:16:05.510Z,7.30
2019-06-10T01:18:38.331Z,7.50
2019-06-10T01:21:03.798Z,6.70
2019-06-10T01:23:31.461Z,6.73
2019-06-10T01:26:01.617Z,7.03
2019-06-10T01:28:31.432Z,7.03
2019-06-10T01:31:01.077Z,7.73
2019-06-10T01:33:28.443Z,7.30
2019-06-10T01:35:56.076Z,7.57
2019-06-10T01:38:23.606Z,7.60
2019-06-10T01:40:51.203Z,6.90
2019-06-10T01:43:21.225Z,7.27
2019-06-10T01:45:48.357Z,7.43
2019-06-10T01:48:16.722Z,7.30
2019-06-10T01:50:45.374Z,7.20
2019-06-10T01:53:15.680Z,7.10
2019-06-10T01:55:42.390Z,7.43
2019-06-10T01:58:14.182Z,7.60
2019-06-10T02:00:50.762Z,6.87
2019-06-10T02:03:19.296Z,6.97
2019-06-10T02:05:47.822Z,6.83
2019-06-10T02:08:17.732Z,7.27
2019-06-10T02:10:46.016Z,6.47
2019-06-10T02:13:33.595Z,6.47
2019-06-10T02:16:01.933Z,7.03
2019-06-10T02:18:31.884Z,7.47
2019-06-10T02:21:00.894Z,7.53
2019-06-10T02:23:31.044Z,6.87
2019-06-10T02:26:01.060Z,7.83
2019-06-10T02:28:27.899Z,7.57
2019-06-10T02:30:56.136Z,7.13
2019-06-10T02:33:30.501Z,7.00
2019-06-10T02:35:53.941Z,7.67
2019-06-10T02:38:32.791Z,7.40
2019-06-10T02:40:53.840Z,7.20
2019-06-10T02:43:31.735Z,7.53
2019-06-10T02:45:53.213Z,7.87
2019-06-10T02:48:24.670Z,7.70
2019-06-10T02:51:18.177Z,7.27
2019-06-10T02:53:46.034Z,7.43
2019-06-10T02:56:14.763Z,7.10
2019-06-10T02:58:45.056Z,7.07
2019-06-10T03:01:15.265Z,7.60
2019-06-10T03:03:48.524Z,7.30
2019-06-10T03:06:14.379Z,7.20
2019-06-10T03:08:43.670Z,7.07
2019-06-10T03:11:14.138Z,7.57
2019-06-10T03:13:42.658Z,7.87
2019-06-10T03:16:19.935Z,7.90
2019-06-10T03:18:48.633Z,7.60
2019-06-10T03:21:16.365Z,7.60
2019-06-10T03:23:44.061Z,7.10
2019-06-10T03:26:12.898Z,6.97
2019-06-10T03:28:42.756Z,7.50
2019-06-10T03:31:10.083Z,7.70
2019-06-10T03:33:41.996Z,7.60
2019-06-10T03:36:07.192Z,7.60
2019-06-10T03:38:37.015Z,7.83
2019-06-10T03:41:04.136Z,8.43
2019-06-10T03:43:33.189Z,7.83
2019-06-10T03:46:02.962Z,7.70
2019-06-10T03:48:32.567Z,7.73
2019-06-10T03:50:59.758Z,8.13
2019-06-10T03:53:28.529Z,8.10
2019-06-10T03:55:56.331Z,7.70
2019-06-10T03:58:26.464Z,7.60
2019-06-10T04:00:53.363Z,7.73
2019-06-10T04:03:23.851Z,7.87
2019-06-10T04:05:52.566Z,8.30
2019-06-10T04:08:22.043Z,8.20
2019-06-10T04:10:49.462Z,8.13
2019-06-10T04:13:17.606Z,8.43
2019-06-10T04:15:45.118Z,7.57
2019-06-10T04:18:12.879Z,8.73
2019-06-10T04:20:42.679Z,9.23
2019-06-10T04:23:12.002Z,8.73
2019-06-10T04:25:42.776Z,9.10
2019-06-10T04:28:12.519Z,9.10
2019-06-10T04:30:43.073Z,9.70
2019-06-10T04:33:09.875Z,9.90
2019-06-10T04:35:37.475Z,8.70
2019-06-10T04:38:04.992Z,8.57
2019-06-10T04:40:32.997Z,8.10
2019-06-10T04:43:02.882Z,8.63
2019-06-10T04:45:32.440Z,8.60
2019-06-10T04:47:59.719Z,8.40
2019-06-10T04:50:40.466Z,8.90
2019-06-10T04:52:56.825Z,9.00
2019-06-10T04:55:26.153Z,8.57
2019-06-10T04:57:53.903Z,8.70
2019-06-10T05:00:24.107Z,8.07
2019-06-10T05:02:52.250Z,8.43
2019-06-10T05:05:23.611Z,8.97
2019-06-10T05:07:52.034Z,8.37
2019-06-10T05:10:21.137Z,7.83
2019-06-10T05:12:49.320Z,8.20
2019-06-10T05:15:16.953Z,8.93
2019-06-10T05:17:44.622Z,8.00
2019-06-10T05:20:12.714Z,8.23
2019-06-10T05:22:42.451Z,8.43
2019-06-10T05:25:09.995Z,8.27
2019-06-10T05:27:37.618Z,7.47
2019-06-10T05:30:06.162Z,7.83
2019-06-10T05:32:33.770Z,8.10
2019-06-10T05:35:03.491Z,7.37
2019-06-10T05:37:33.703Z,8.20
2019-06-10T05:40:02.541Z,8.57
2019-06-10T05:42:33.135Z,8.40
2019-06-10T05:44:59.536Z,8.50
2019-06-10T05:47:28.323Z,8.47
2019-06-10T05:49:56.578Z,8.57
2019-06-10T05:52:25.828Z,8.30
2019-06-10T05:54:53.662Z,8.27
2019-06-10T05:57:23.028Z,8.03
2019-06-10T05:59:52.252Z,7.67
2019-06-10T06:02:22.286Z,8.47
2019-06-10T06:04:49.728Z,7.83
2019-06-10T06:07:18.376Z,8.10
2019-06-10T06:09:45.954Z,8.20
2019-06-10T06:12:14.310Z,7.30
2019-06-10T06:14:42.615Z,6.73
2019-06-10T06:17:12.581Z,7.53
2019-06-10T06:19:39.910Z,7.37
2019-06-10T06:22:08.702Z,7.50
2019-06-10T06:24:37.896Z,6.90
2019-06-10T06:27:05.754Z,6.20
2019-06-10T06:29:33.917Z,6.80
2019-06-10T06:32:02.863Z,6.57
2019-06-10T06:34:32.689Z,6.30
2019-06-10T06:37:02.094Z,6.80
2019-06-10T06:39:29.475Z,6.60
2019-06-10T06:41:57.041Z,6.50
2019-06-10T06:44:24.641Z,6.53
2019-06-10T06:46:53.235Z,6.67
2019-06-10T06:49:23.116Z,6.47
2019-06-10T06:51:56.101Z,7.07
2019-06-10T06:54:20.258Z,6.47
2019-06-10T06:56:47.823Z,5.87
2019-06-10T06:59:15.743Z,6.67
2019-06-10T07:01:44.031Z,6.23
2019-06-10T07:04:13.037Z,6.17
2019-06-10T07:06:43.188Z,6.27
2019-06-10T07:09:13.370Z,6.30
2019-06-10T07:11:44.916Z,5.97
2019-06-10T07:14:13.365Z,6.10
2019-06-10T07:16:43.842Z,6.73
2019-06-10T07:19:10.153Z,6.60
2019-06-10T07:21:58.021Z,6.77
2019-06-10T07:24:07.525Z,6.70
2019-06-10T07:26:39.047Z,6.40
2019-06-10T07:29:04.518Z,6.80
2019-06-10T07:31:33.841Z,6.17
2019-06-10T07:34:02.611Z,6.70
2019-06-10T07:36:32.512Z,6.30
2019-06-10T07:39:00.007Z,6.97
2019-06-10T07:41:27.699Z,6.40
2019-06-10T07:43:55.337Z,5.80
2019-06-10T07:46:23.312Z,5.67
2019-06-10T07:48:55.635Z,6.27
2019-06-10T07:51:22.614Z,7.00
2019-06-10T07:53:52.320Z,6.53
2019-06-10T07:56:19.687Z,6.40
2019-06-10T07:58:47.790Z,6.47
2019-06-10T08:01:15.595Z,6.78
2019-06-10T08:03:46.195Z,6.60
2019-06-10T08:06:13.027Z,6.03
2019-06-10T08:08:43.886Z,6.35
2019-06-10T08:11:10.294Z,6.42
2019-06-10T08:13:37.860Z,6.77
2019-06-10T08:16:05.644Z,6.83
2019-06-10T08:18:44.481Z,7.25
2019-06-10T08:21:03.299Z,7.17
2019-06-10T08:23:32.891Z,6.75
2019-06-10T08:26:03.145Z,6.70
2019-06-10T08:28:30.091Z,7.23
2019-06-10T08:30:57.663Z,6.65
2019-06-10T08:33:25.212Z,6.70
2019-06-10T08:35:59.893Z,6.40
2019-06-10T08:38:23.097Z,6.45
2019-06-10T08:40:52.499Z,6.47
2019-06-10T08:43:22.628Z,6.25
2019-06-10T08:45:49.861Z,6.83
2019-06-10T08:48:17.543Z,6.40
2019-06-10T08:50:48.326Z,6.60
2019-06-10T08:53:18.153Z,5.67
2019-06-10T08:55:46.615Z,5.70
2019-06-10T08:58:14.062Z,6.80
2019-06-10T09:00:45.070Z,6.08
2019-06-10T09:03:12.621Z,6.28
2019-06-10T09:05:41.890Z,6.37
2019-06-10T09:08:10.005Z,6.53
2019-06-10T09:10:40.957Z,6.53
2019-06-10T09:13:08.207Z,6.47
2019-06-10T09:15:35.812Z,6.30
2019-06-10T09:18:03.447Z,5.85
2019-06-10T09:20:33.162Z,6.10
2019-06-10T09:23:17.898Z,6.20
2019-06-10T09:25:33.162Z,6.62
2019-06-10T09:28:02.230Z,6.37
2019-06-10T09:30:29.263Z,5.75
2019-06-10T09:33:00.730Z,6.08
2019-06-10T09:35:26.367Z,5.97
2019-06-10T09:37:55.627Z,5.80
2019-06-10T09:40:34.687Z,6.25
2019-06-10T09:43:02.542Z,6.35
2019-06-10T09:45:33.114Z,6.10
2019-06-10T09:48:03.749Z,5.80
2019-06-10T09:50:41.170Z,5.60
2019-06-10T09:53:09.252Z,6.50
2019-06-10T09:55:37.947Z,5.72
2019-06-10T09:58:05.525Z,6.03
2019-06-10T10:00:47.338Z,6.55
2019-06-10T10:03:12.474Z,6.22
2019-06-10T10:05:45.407Z,6.40
2019-06-10T10:08:12.526Z,6.28
2019-06-10T10:10:39.734Z,6.75
2019-06-10T10:13:07.734Z,7.08
2019-06-10T10:15:36.586Z,6.62
2019-06-10T10:18:04.811Z,7.40
2019-06-10T10:20:34.065Z,7.30
2019-06-10T10:23:02.670Z,7.42
2019-06-10T10:25:32.665Z,7.37
2019-06-10T10:28:03.041Z,7.20
2019-06-10T10:30:32.998Z,7.75
2019-06-10T10:33:02.546Z,7.20
2019-06-10T10:35:29.508Z,7.20
2019-06-10T10:37:57.087Z,8.15
2019-06-10T10:40:24.658Z,8.13
2019-06-10T10:43:01.782Z,7.60
2019-06-10T10:45:22.651Z,7.85
2019-06-10T10:47:52.597Z,8.23
2019-06-10T10:50:22.488Z,7.33
2019-06-10T10:52:50.033Z,7.90
2019-06-10T10:55:22.190Z,8.08
2019-06-10T10:57:49.410Z,7.75
2019-06-10T11:00:19.286Z,8.08
2019-06-10T11:02:49.229Z,7.20
2019-06-10T11:05:35.197Z,8.15
2019-06-10T11:08:04.370Z,8.15
2019-06-10T11:10:33.073Z,8.18
2019-06-10T11:13:06.283Z,9.00
2019-06-10T11:15:34.034Z,8.53
2019-06-10T11:18:03.847Z,9.48
2019-06-10T11:20:33.621Z,9.03
2019-06-10T11:23:02.905Z,8.25
2019-06-10T11:25:33.199Z,8.35
2019-06-10T11:28:03.390Z,9.20
2019-06-10T11:30:32.267Z,9.80
2019-06-10T11:32:59.752Z,8.63
2019-06-10T11:35:27.321Z,8.68
2019-06-10T11:37:56.599Z,9.35
2019-06-10T11:40:24.420Z,8.05
2019-06-10T11:42:56.391Z,7.97
2019-06-10T11:45:22.290Z,8.80
2019-06-10T11:47:51.659Z,8.35
2019-06-10T11:50:23.104Z,9.00
2019-06-10T11:52:53.577Z,9.63
2019-06-10T11:55:19.524Z,9.40
2019-06-10T11:57:47.872Z,9.10
2019-06-10T12:00:17.390Z,9.88
2019-06-10T12:02:45.495Z,9.85
2019-06-10T12:05:15.301Z,9.78
2019-06-10T12:07:43.602Z,9.93
2019-06-10T12:10:13.047Z,10.68
2019-06-10T12:12:43.202Z,9.73
2019-06-10T12:15:12.173Z,10.05
2019-06-10T12:17:50.050Z,9.03
2019-06-10T12:20:13.324Z,9.70
2019-06-10T12:22:42.371Z,10.88
2019-06-10T12:25:32.415Z,10.05
2019-06-10T12:27:43.301Z,10.20
2019-06-10T12:30:13.320Z,9.95
2019-06-10T12:32:42.551Z,9.60
2019-06-10T12:35:13.511Z,9.15
2019-06-10T12:37:42.507Z,9.65
2019-06-10T12:40:12.567Z,8.80
2019-06-10T12:42:40.200Z,9.53
2019-06-10T12:45:09.280Z,8.93
2019-06-10T12:47:36.982Z,8.58
2019-06-10T12:50:05.560Z,9.25
2019-06-10T12:52:33.241Z,8.58
2019-06-10T12:55:02.286Z,8.23
2019-06-10T12:57:32.431Z,8.78
2019-06-10T13:00:01.199Z,9.08
2019-06-10T13:02:34.063Z,8.63
2019-06-10T13:05:03.130Z,8.60
2019-06-10T13:07:32.501Z,8.43
2019-06-10T13:10:00.286Z,8.75
2019-06-10T13:12:27.842Z,8.38
2019-06-10T13:14:56.276Z,8.30
2019-06-10T13:17:24.149Z,8.75
2019-06-10T13:19:52.287Z,7.72
2019-06-10T13:22:19.984Z,8.28
2019-06-10T13:24:47.524Z,8.28
2019-06-10T13:27:15.212Z,8.80
2019-06-10T13:29:43.873Z,8.88
2019-06-10T13:32:11.781Z,8.68
2019-06-10T13:34:39.310Z,8.88
2019-06-10T13:37:08.570Z,8.18
2019-06-10T13:39:36.339Z,8.50
2019-06-10T13:42:07.768Z,8.13
2019-06-10T13:44:33.854Z,8.50
2019-06-10T13:47:05.182Z,9.00
2019-06-10T13:49:33.081Z,7.80
2019-06-10T13:52:04.692Z,8.80
2019-06-10T13:54:31.262Z,8.33
2019-06-10T13:56:59.163Z,8.20
2019-06-10T13:59:26.875Z,8.93
2019-06-10T14:01:54.513Z,8.40
2019-06-10T14:04:25.610Z,9.68
2019-06-10T14:06:56.771Z,9.15
2019-06-10T14:09:23.154Z,9.03
2019-06-10T14:11:51.328Z,8.68
2019-06-10T14:14:18.960Z,8.65
2019-06-10T14:16:46.640Z,9.05
2019-06-10T14:19:17.264Z,8.65
2019-06-10T14:21:44.926Z,9.15
2019-06-10T14:24:15.844Z,9.03
2019-06-10T14:26:45.444Z,8.70
2019-06-10T14:29:15.879Z,8.63
2019-06-10T14:31:46.904Z,9.15
2019-06-10T14:34:16.769Z,8.80
2019-06-10T14:36:43.539Z,8.60
2019-06-10T14:39:13.113Z,8.35
2019-06-10T14:41:42.888Z,8.40
2019-06-10T14:44:11.506Z,8.88
2019-06-10T14:46:42.382Z,7.90
2019-06-10T14:49:11.502Z,8.85
2019-06-10T14:51:39.687Z,8.33
2019-06-10T14:54:07.343Z,7.65
2019-06-10T14:56:49.606Z,8.78
2019-06-10T14:59:05.419Z,7.92
2019-06-10T15:01:33.034Z,8.40
2019-06-10T15:04:02.822Z,8.45
2019-06-10T15:06:30.214Z,7.33
2019-06-10T15:08:58.160Z,7.92
2019-06-10T15:11:27.586Z,7.90
2019-06-10T15:13:56.492Z,7.05
2019-06-10T15:16:24.128Z,7.72
2019-06-10T15:18:52.582Z,7.72
2019-06-10T15:21:22.987Z,7.85
2019-06-10T15:23:52.197Z,8.13
2019-06-10T15:26:20.336Z,8.18
2019-06-10T15:28:48.042Z,7.75
2019-06-10T15:31:16.767Z,7.65
2019-06-10T15:33:45.114Z,8.90
2019-06-10T15:36:13.195Z,7.85
2019-06-10T15:38:43.863Z,7.70
2019-06-10T15:41:15.068Z,12.15
2019-06-10T15:43:42.244Z,8.68
2019-06-10T15:46:09.940Z,7.42
2019-06-10T15:48:38.323Z,7.92
2019-06-10T15:51:06.050Z,7.17
2019-06-10T15:53:33.636Z,9.23
2019-06-10T15:56:29.965Z,8.10
2019-06-10T15:58:32.124Z,7.85
2019-06-10T16:01:02.527Z,7.28
2019-06-10T16:03:29.283Z,8.73
2019-06-10T16:05:56.848Z,7.80
2019-06-10T16:08:24.379Z,8.55
2019-06-10T16:10:52.799Z,7.95
2019-06-10T16:13:23.175Z,7.60
2019-06-10T16:15:52.928Z,8.50
2019-06-10T16:18:21.222Z,9.00
2019-06-10T16:20:49.098Z,8.63
2019-06-10T16:23:17.594Z,9.08
2019-06-10T16:25:47.984Z,8.58
2019-06-10T16:28:15.963Z,9.00
2019-06-10T16:30:43.767Z,8.78
2019-06-10T16:33:13.078Z,9.30
2019-06-10T16:35:40.900Z,9.15
2019-06-10T16:38:08.491Z,9.50
2019-06-10T16:40:36.058Z,8.18
2019-06-10T16:43:03.756Z,8.88
2019-06-10T16:45:33.884Z,9.70
2019-06-10T16:48:02.422Z,9.30
2019-06-10T16:50:33.723Z,9.30
2019-06-10T16:52:59.587Z,9.38
2019-06-10T16:55:27.358Z,8.83
2019-06-10T16:57:59.202Z,8.98
2019-06-10T17:00:26.114Z,9.13
2019-06-10T17:02:53.921Z,8.88
2019-06-10T17:05:25.127Z,8.93
2019-06-10T17:07:52.607Z,8.35
2019-06-10T17:10:21.779Z,8.43
2019-06-10T17:12:59.541Z,8.38
2019-06-10T17:15:27.397Z,8.60
2019-06-10T17:17:55.007Z,8.33
2019-06-10T17:20:23.591Z,8.50
2019-06-10T17:22:52.471Z,8.10
2019-06-10T17:25:23.513Z,7.62
2019-06-10T17:27:49.811Z,7.83
2019-06-10T17:30:19.569Z,8.18
2019-06-10T17:32:47.175Z,7.67
2019-06-10T17:35:14.843Z,7.90
2019-06-10T17:37:43.211Z,7.37
2019-06-10T17:40:12.955Z,7.62
2019-06-10T17:42:42.688Z,7.90
2019-06-10T17:45:12.673Z,7.23
2019-06-10T17:47:39.843Z,7.95
2019-06-10T17:50:09.018Z,7.03
2019-06-10T17:52:38.846Z,8.27
2019-06-10T17:55:06.347Z,6.93
2019-06-10T17:57:36.174Z,7.70
2019-06-10T18:00:11.493Z,7.53
2019-06-10T18:02:39.135Z,6.77
2019-06-10T18:05:05.903Z,7.70
2019-06-10T18:07:34.476Z,6.80
2019-06-10T18:10:02.976Z,7.30
2019-06-10T18:12:32.975Z,7.43
2019-06-10T18:15:00.044Z,6.83
2019-06-10T18:17:28.766Z,7.00
2019-06-10T18:19:56.378Z,6.47
2019-06-10T18:22:24.426Z,7.00
2019-06-10T18:24:52.395Z,7.33
2019-06-10T18:27:21.976Z,7.53
2019-06-10T18:29:49.615Z,7.43
2019-06-10T18:32:17.245Z,7.67
2019-06-10T18:34:44.753Z,7.53
2019-06-10T18:37:12.342Z,7.60
2019-06-10T18:39:40.015Z,7.00
2019-06-10T18:42:07.540Z,7.87
2019-06-10T18:44:37.053Z,7.53
2019-06-10T18:47:04.618Z,7.03
2019-06-10T18:49:34.013Z,7.87
2019-06-10T18:52:01.674Z,7.70
2019-06-10T18:54:29.542Z,7.47
2019-06-10T18:56:57.179Z,7.63
2019-06-10T18:59:24.726Z,8.13
2019-06-10T19:01:52.853Z,8.13
2019-06-10T19:04:22.412Z,8.37
2019-06-10T19:06:52.540Z,7.93
2019-06-10T19:09:19.491Z,8.10
2019-06-10T19:11:47.114Z,8.43
2019-06-10T19:14:14.777Z,8.73
2019-06-10T19:16:43.074Z,8.47
2019-06-10T19:19:12.663Z,8.50
2019-06-10T19:21:43.597Z,7.93
2019-06-10T19:24:10.210Z,12.20
2019-06-10T19:26:40.016Z,9.10
2019-06-10T19:29:08.349Z,8.77
2019-06-10T19:31:38.100Z,8.43
2019-06-10T19:34:05.627Z,8.50
2019-06-10T19:36:33.645Z,9.50
2019-06-10T19:39:02.324Z,8.83
2019-06-10T19:41:35.775Z,8.93
2019-06-10T19:44:02.461Z,12.40
2019-06-10T19:46:33.760Z,9.33
2019-06-10T19:49:04.080Z,9.70
2019-06-10T19:51:32.487Z,9.10
2019-06-10T19:54:03.566Z,10.00
2019-06-10T19:56:30.664Z,9.60
2019-06-10T19:58:58.442Z,9.00
2019-06-10T20:01:26.122Z,8.97
2019-06-10T20:03:53.825Z,9.67
2019-06-10T20:06:21.413Z,9.00
2019-06-10T20:08:48.923Z,9.37
2019-06-10T20:11:16.562Z,8.43
2019-06-10T20:13:46.916Z,8.57
2019-06-10T20:16:14.823Z,9.00
2019-06-10T20:18:47.601Z,8.03
2019-06-10T20:21:12.976Z,8.83
2019-06-10T20:23:44.562Z,8.57
2019-06-10T20:26:12.103Z,9.27
2019-06-10T20:28:41.311Z,8.97
2019-06-10T20:31:09.228Z,8.73
2019-06-10T20:33:38.628Z,9.17
2019-06-10T20:36:08.142Z,8.90
2019-06-10T20:38:35.938Z,9.27
2019-06-10T20:41:03.702Z,9.23
2019-06-10T20:43:32.847Z,8.43
2019-06-10T20:46:02.890Z,8.00
2019-06-10T20:48:32.628Z,8.43
2019-06-10T20:51:02.668Z,9.30
2019-06-10T20:53:29.247Z,8.17
2019-06-10T20:55:57.758Z,8.47
2019-06-10T20:58:26.707Z,8.90
2019-06-10T21:00:57.193Z,8.50
2019-06-10T21:03:23.799Z,8.70
2019-06-10T21:05:53.460Z,8.53
2019-06-10T21:08:22.660Z,9.40
2019-06-10T21:10:51.966Z,9.40
2019-06-10T21:13:22.582Z,9.30
2019-06-10T21:15:51.513Z,8.63
2019-06-10T21:18:19.266Z,9.80
2019-06-10T21:20:49.923Z,9.17
2019-06-10T21:23:16.627Z,9.10
2019-06-10T21:25:47.628Z,9.77
2019-06-10T21:28:13.847Z,8.97
2019-06-10T21:30:46.802Z,8.53
2019-06-10T21:33:13.021Z,9.30
2019-06-10T21:35:44.119Z,8.90
2019-06-10T21:38:12.702Z,9.00
2019-06-10T21:40:42.502Z,9.47
2019-06-10T21:43:09.859Z,8.97
2019-06-10T21:45:37.576Z,8.30
2019-06-10T21:48:05.239Z,8.50
2019-06-10T21:50:33.976Z,8.67
2019-06-10T21:53:02.985Z,8.97
2019-06-10T21:55:33.230Z,8.53
2019-06-10T21:58:00.746Z,8.87
2019-06-10T22:00:52.033Z,8.20
2019-06-10T22:03:06.381Z,8.50
2019-06-10T22:05:33.901Z,9.00
2019-06-10T22:08:03.126Z,8.40
2019-06-10T22:10:33.620Z,8.93
2019-06-10T22:13:03.159Z,9.27
2019-06-10T22:15:33.316Z,8.70
2019-06-10T22:18:02.178Z,9.00
2019-06-10T22:20:32.513Z,9.37
2019-06-10T22:22:59.627Z,9.37
2019-06-10T22:25:27.267Z,8.80
2019-06-10T22:27:56.189Z,9.33
2019-06-10T22:30:23.940Z,9.23
2019-06-10T22:32:54.877Z,8.60
2019-06-10T22:35:22.946Z,9.07
2019-06-10T22:37:52.587Z,8.70
2019-06-10T22:40:22.422Z,9.03
2019-06-10T22:42:52.487Z,9.50
2019-06-10T22:45:19.491Z,8.80
2019-06-10T22:47:47.653Z,9.07
2019-06-10T22:50:15.444Z,9.23
2019-06-10T22:52:43.139Z,9.57
2019-06-10T22:55:12.967Z,8.93
2019-06-10T22:57:43.991Z,9.13
2019-06-10T23:00:13.080Z,9.47
2019-06-10T23:02:40.803Z,9.10
2019-06-10T23:05:09.544Z,9.17
2019-06-10T23:07:37.147Z,8.87
2019-06-10T23:10:05.401Z,9.43
2019-06-10T23:12:33.043Z,8.77
2019-06-10T23:15:02.837Z,8.17
2019-06-10T23:20:51.125Z,9.37
2019-06-10T23:23:19.511Z,9.43
2019-06-10T23:25:47.170Z,9.70
2019-06-10T23:28:14.720Z,8.90
2019-06-10T23:30:42.882Z,10.50
2019-06-10T23:33:12.510Z,10.13
2019-06-10T23:35:42.686Z,9.30
2019-06-10T23:38:09.795Z,9.73
2019-06-10T23:40:37.348Z,9.40
2019-06-10T23:43:04.878Z,10.50
2019-06-10T23:45:33.450Z,10.63
2019-06-10T23:48:03.666Z,10.30
2019-06-10T23:50:32.803Z,10.70
2019-06-10T23:53:06.655Z,10.43
2019-06-10T23:55:31.651Z,9.07
2019-06-10T23:57:58.902Z,10.47
